Time;durP1;ratioP1;P1;durP2;ratioP2;P2;SDS_P1;SDS_P2;PMS_P1;PMS_P2;Temp;Humidity;BMP_temperature;BMP_pressure;BME280_temperature;BME280_humidity;BME280_pressure;Samples;Min_cycle;Max_cycle;Signal;HPM_P1;HPM_P2
2021/06/27 00:00:19;;;;;;;6.75;6.15;;;21.70;69.80;;;;;;5014263;28;20025;-44
2021/06/27 00:02:45;;;;;;;7.05;5.70;;;21.70;69.90;;;;;;5013973;28;20472;-44
2021/06/27 00:05:13;;;;;;;7.43;6.40;;;21.70;69.90;;;;;;5014232;28;20071;-44
2021/06/27 00:07:39;;;;;;;6.45;5.85;;;21.70;69.80;;;;;;5013906;28;20041;-44
2021/06/27 00:10:09;;;;;;;6.97;6.25;;;21.70;69.90;;;;;;5013851;28;20018;-44
2021/06/27 00:12:35;;;;;;;;;;;21.70;69.80;;;;;;5014613;28;20026;-44
2021/06/27 00:15:01;;;;;;;12.40;6.15;;;21.80;69.90;;;;;;5013984;28;19909;-45
2021/06/27 00:17:27;;;;;;;6.88;6.18;;;22.10;70.00;;;;;;5014015;28;20511;-44
2021/06/27 00:19:52;;;;;;;7.63;6.15;;;21.60;69.70;;;;;;5013932;28;20045;-44
2021/06/27 00:22:18;;;;;;;6.95;6.15;;;21.60;69.80;;;;;;5013544;28;20034;-44
2021/06/27 00:24:44;;;;;;;6.78;6.07;;;21.70;69.70;;;;;;5013816;28;20061;-46
2021/06/27 00:27:10;;;;;;;7.03;6.25;;;21.90;69.80;;;;;;5013899;28;20125;-44
2021/06/27 00:29:35;;;;;;;6.53;5.93;;;21.80;69.80;;;;;;5013764;28;20105;-44
2021/06/27 00:32:01;;;;;;;6.50;5.90;;;21.60;69.70;;;;;;5013570;28;20098;-44
2021/06/27 00:34:27;;;;;;;6.72;6.03;;;21.60;69.70;;;;;;5013026;28;20022;-44
2021/06/27 00:36:52;;;;;;;7.75;5.95;;;21.90;69.90;;;;;;5013633;28;20060;-44
2021/06/27 00:39:18;;;;;;;6.95;6.28;;;21.60;69.70;;;;;;5012495;28;20041;-44
2021/06/27 00:41:43;;;;;;;6.78;6.10;;;21.90;69.80;;;;;;4995501;28;20045;-44
2021/06/27 00:44:09;;;;;;;7.00;6.30;;;21.60;69.70;;;;;;5013553;28;20024;-44
2021/06/27 00:46:34;;;;;;;6.72;6.03;;;21.70;69.70;;;;;;5013000;28;20049;-44
2021/06/27 00:49:00;;;;;;;6.47;5.88;;;21.90;69.90;;;;;;5013488;28;20017;-43
2021/06/27 00:51:26;;;;;;;6.50;5.50;;;21.60;69.60;;;;;;5013430;28;20080;-44
2021/06/27 00:53:52;;;;;;;7.47;6.65;;;21.50;69.60;;;;;;5013391;28;20021;-44
2021/06/27 00:56:18;;;;;;;7.22;6.53;;;22.00;69.90;;;;;;5013471;28;20104;-44
2021/06/27 00:58:45;;;;;;;6.97;6.30;;;21.60;69.70;;;;;;5013320;28;20073;-45
2021/06/27 01:01:11;;;;;;;6.55;5.85;;;21.60;69.60;;;;;;5013275;28;20038;-44
2021/06/27 01:03:37;;;;;;;6.53;5.85;;;21.40;69.50;;;;;;5013238;28;20025;-44
2021/06/27 01:06:03;;;;;;;6.82;6.22;;;21.60;70.20;;;;;;5013340;28;20022;-44
2021/06/27 01:08:29;;;;;;;6.82;6.22;;;21.60;69.60;;;;;;5013053;28;20088;-44
2021/06/27 01:10:55;;;;;;;6.25;5.72;;;21.60;69.50;;;;;;5013234;28;20377;-44
2021/06/27 01:13:22;;;;;;;6.68;6.07;;;21.60;69.40;;;;;;5013189;28;20026;-46
2021/06/27 01:15:52;;;;;;;6.10;5.50;;;21.50;69.40;;;;;;5013146;28;20076;-43
2021/06/27 01:18:17;;;;;;;6.60;6.00;;;21.60;69.40;;;;;;5013157;28;20055;-43
2021/06/27 01:20:44;;;;;;;6.93;6.03;;;21.60;69.40;;;;;;5012697;28;20465;-44
2021/06/27 01:23:12;;;;;;;7.22;6.30;;;21.60;69.40;;;;;;5013076;28;20022;-45
2021/06/27 01:25:41;;;;;;;6.70;6.00;;;21.60;69.40;;;;;;5013079;28;20098;-44
2021/06/27 01:28:07;;;;;;;7.38;6.60;;;21.60;69.40;;;;;;5012659;28;20033;-43
2021/06/27 01:30:34;;;;;;;6.72;6.13;;;21.80;69.50;;;;;;5011542;28;20076;-44
2021/06/27 01:33:03;;;;;;;6.57;5.90;;;21.90;69.50;;;;;;5012770;28;20037;-44
2021/06/27 01:35:29;;;;;;;6.38;5.88;;;21.60;69.40;;;;;;5012749;28;20022;-43
2021/06/27 01:37:56;;;;;;;7.05;6.35;;;21.50;69.20;;;;;;5013215;28;20037;-44
2021/06/27 01:40:24;;;;;;;7.03;6.40;;;21.90;69.50;;;;;;5011379;28;20417;-44
2021/06/27 01:42:50;;;;;;;5.60;5.10;;;21.80;69.40;;;;;;5012656;28;20464;-44
2021/06/27 01:45:25;;;;;;;7.18;6.38;;;21.50;69.30;;;;;;5013660;28;20025;-45
2021/06/27 01:47:59;;;;;;;7.00;6.15;;;21.50;69.20;;;;;;5016606;28;20064;-44
2021/06/27 01:50:25;;;;;;;6.85;6.25;;;21.50;69.20;;;;;;5016841;28;20026;-44
2021/06/27 01:52:52;;;;;;;7.20;6.50;;;21.50;69.20;;;;;;5016362;28;20026;-43
2021/06/27 01:55:18;;;;;;;6.45;5.85;;;21.60;69.30;;;;;;5016740;28;20387;-43
2021/06/27 01:57:44;;;;;;;6.70;6.10;;;21.40;69.10;;;;;;5015096;28;20022;-45
2021/06/27 02:00:10;;;;;;;7.13;6.50;;;21.70;69.30;;;;;;5016497;28;20014;-44
2021/06/27 02:02:36;;;;;;;6.82;6.22;;;21.50;69.10;;;;;;5016303;28;20052;-44
2021/06/27 02:05:06;;;;;;;7.28;6.57;;;21.60;69.20;;;;;;5016440;28;20473;-44
2021/06/27 02:07:33;;;;;;;6.72;6.13;;;21.50;69.10;;;;;;5016498;28;20427;-45
2021/06/27 02:09:58;;;;;;;7.13;6.43;;;21.30;69.00;;;;;;5016668;28;20379;-44
2021/06/27 02:12:24;;;;;;;8.82;6.50;;;21.60;69.10;;;;;;5016076;28;20021;-44
2021/06/27 02:14:49;;;;;;;7.20;6.05;;;21.60;69.00;;;;;;5016034;28;20104;-43
2021/06/27 02:17:15;;;;;;;7.68;6.97;;;21.50;69.00;;;;;;5016006;28;20036;-43
2021/06/27 02:19:41;;;;;;;7.30;6.60;;;21.50;69.00;;;;;;5015948;28;20029;-44
2021/06/27 02:22:06;;;;;;;6.57;5.95;;;21.50;89.20;;;;;;5016365;28;20030;-44
2021/06/27 02:24:33;;;;;;;9.57;6.20;;;21.50;69.00;;;;;;5016180;28;20018;-45
2021/06/27 02:26:59;;;;;;;7.20;6.50;;;21.80;69.10;;;;;;5016161;28;20072;-44
2021/06/27 02:29:26;;;;;;;9.20;6.80;;;21.50;69.00;;;;;;5015976;28;20030;-45
2021/06/27 02:31:52;;;;;;;7.10;6.40;;;21.50;69.00;;;;;;5016054;28;20319;-44
2021/06/27 02:34:19;;;;;;;6.68;6.07;;;21.50;68.90;;;;;;5015719;28;20022;-46
2021/06/27 02:36:45;;;;;;;8.10;6.72;;;21.80;69.20;;;;;;5015901;28;20029;-44
2021/06/27 02:39:11;;;;;;;7.10;6.40;;;21.50;68.90;;;;;;5015887;28;20388;-44
2021/06/27 02:41:37;;;;;;;7.82;7.03;;;21.60;69.00;;;;;;5015392;28;20038;-44
2021/06/27 02:44:07;;;;;;;8.13;7.30;;;21.50;68.90;;;;;;5015708;28;20026;-44
2021/06/27 02:46:33;;;;;;;7.75;7.05;;;21.50;68.90;;;;;;5015384;28;20056;-44
2021/06/27 02:48:59;;;;;;;9.52;7.13;;;21.40;68.80;;;;;;5015755;28;20089;-44
2021/06/27 02:51:25;;;;;;;6.10;5.60;;;21.40;68.90;;;;;;5015394;28;20029;-44
2021/06/27 02:53:51;;;;;;;7.78;6.93;;;21.50;68.90;;;;;;5015317;28;20026;-44
2021/06/27 02:56:16;;;;;;;7.53;6.75;;;21.40;68.80;;;;;;5014963;28;20026;-43
2021/06/27 02:58:46;;;;;;;7.88;7.10;;;21.50;68.80;;;;;;5015480;28;20068;-44
2021/06/27 03:01:12;;;;;;;8.40;7.43;;;21.70;68.90;;;;;;5015426;28;20042;-45
2021/06/27 03:03:39;;;;;;;7.20;6.50;;;21.50;68.90;;;;;;5015126;28;20018;-45
2021/06/27 03:06:05;;;;;;;6.80;6.18;;;21.70;69.60;;;;;;5015414;28;20026;-46
2021/06/27 03:08:31;;;;;;;7.15;6.55;;;21.40;68.70;;;;;;5015176;28;20030;-44
2021/06/27 03:10:58;;;;;;;7.57;6.78;;;21.70;68.90;;;;;;5015337;28;20033;-47
2021/06/27 03:13:24;;;;;;;7.35;6.63;;;21.10;68.50;;;;;;5015300;28;20118;-47
2021/06/27 03:15:49;;;;;;;7.47;6.78;;;21.50;68.80;;;;;;5015278;28;20081;-46
2021/06/27 03:18:15;;;;;;;7.28;6.57;;;21.40;68.70;;;;;;5014936;28;20524;-44
2021/06/27 03:20:40;;;;;;;7.40;6.70;;;21.40;68.70;;;;;;5014764;28;20038;-44
2021/06/27 03:23:08;;;;;;;7.05;6.43;;;21.40;68.70;;;;;;5015063;28;20080;-45
2021/06/27 03:25:35;;;;;;;7.13;6.53;;;21.40;68.70;;;;;;5015085;28;20018;-43
2021/06/27 03:28:02;;;;;;;8.02;7.22;;;21.70;69.20;;;;;;5013448;28;20074;-45
2021/06/27 03:30:27;;;;;;;9.07;7.07;;;21.40;68.70;;;;;;5014925;28;20033;-44
2021/06/27 03:32:53;;;;;;;7.53;6.82;;;21.70;68.90;;;;;;5014839;28;20053;-44
2021/06/27 03:35:18;;;;;;;7.65;6.93;;;21.50;68.80;;;;;;5014499;28;20022;-44
2021/06/27 03:38:36;;;;;;;8.27;7.35;;;21.40;68.60;;;;;;5014517;28;20025;-44
2021/06/27 03:40:30;;;;;;;7.10;6.40;;;21.60;68.70;;;;;;5000307;28;20509;-44
2021/06/27 03:42:58;;;;;;;8.00;7.30;;;21.40;68.60;;;;;;5014357;28;20029;-44
2021/06/27 03:45:24;;;;;;;8.38;7.45;;;21.40;68.60;;;;;;5013257;28;20060;-44
2021/06/27 03:47:49;;;;;;;7.53;6.85;;;21.40;68.40;;;;;;5014579;28;20029;-45
2021/06/27 03:50:18;;;;;;;8.02;7.20;;;21.60;68.60;;;;;;5014283;28;20030;-45
2021/06/27 03:52:43;;;;;;;8.02;7.22;;;21.50;68.50;;;;;;5014143;28;20477;-44
2021/06/27 03:55:09;;;;;;;7.70;7.00;;;21.80;68.70;;;;;;5014373;28;20048;-44
2021/06/27 03:57:35;;;;;;;7.40;6.70;;;21.40;68.40;;;;;;5014133;28;20030;-44
2021/06/27 04:00:01;;;;;;;7.28;6.63;;;21.40;68.40;;;;;;5014309;28;20026;-44
2021/06/27 04:02:26;;;;;;;8.07;7.28;;;21.40;68.40;;;;;;5013953;28;20030;-44
2021/06/27 04:04:52;;;;;;;10.18;6.78;;;21.40;68.40;;;;;;5012700;28;20483;-44
2021/06/27 04:07:17;;;;;;;7.95;7.25;;;21.40;68.40;;;;;;5013921;28;20117;-44
2021/06/27 04:09:43;;;;;;;7.82;7.13;;;21.90;68.70;;;;;;5013671;28;20018;-44
2021/06/27 04:12:09;;;;;;;7.93;7.20;;;21.40;68.40;;;;;;5013840;28;20156;-45
2021/06/27 04:14:34;;;;;;;7.85;7.05;;;21.40;68.40;;;;;;5013797;28;20033;-44
2021/06/27 04:17:00;;;;;;;7.57;6.57;;;21.40;68.40;;;;;;5014029;28;20037;-44
2021/06/27 04:19:25;;;;;;;8.05;7.28;;;21.20;68.40;;;;;;5013657;28;20018;-44
2021/06/27 04:21:53;;;;;;;8.23;7.43;;;21.40;68.40;;;;;;5013537;28;20057;-45
2021/06/27 04:24:19;;;;;;;8.55;7.75;;;21.40;68.40;;;;;;5013964;28;20490;-45
2021/06/27 04:26:44;;;;;;;7.38;6.78;;;21.80;68.60;;;;;;5013949;28;20061;-44
2021/06/27 04:29:13;;;;;;;7.85;7.15;;;21.40;68.40;;;;;;5013882;28;20084;-45
2021/06/27 04:31:40;;;;;;;7.82;7.03;;;21.50;68.40;;;;;;5013853;28;20065;-44
2021/06/27 04:34:05;;;;;;;7.72;6.93;;;21.70;68.50;;;;;;5013530;28;20499;-45
2021/06/27 04:36:31;;;;;;;7.40;6.70;;;21.70;68.50;;;;;;5013710;28;20026;-44
2021/06/27 04:38:57;;;;;;;8.90;8.10;;;21.40;68.40;;;;;;5013496;28;20095;-44
2021/06/27 04:41:22;;;;;;;7.68;6.97;;;21.70;68.50;;;;;;5013547;28;20038;-45
2021/06/27 04:43:48;;;;;;;8.20;7.45;;;21.60;68.50;;;;;;5013607;28;20072;-44
2021/06/27 04:46:13;;;;;;;8.27;7.47;;;21.40;68.30;;;;;;5013345;28;20050;-45
2021/06/27 04:48:39;;;;;;;7.90;7.18;;;21.80;68.50;;;;;;5013551;28;20462;-44
2021/06/27 04:51:05;;;;;;;8.35;7.57;;;21.40;68.30;;;;;;5013305;28;20092;-45
2021/06/27 04:53:30;;;;;;;7.72;7.10;;;21.40;68.20;;;;;;5013540;28;20026;-45
2021/06/27 04:55:58;;;;;;;8.25;6.88;;;21.70;68.40;;;;;;5013619;28;20018;-46
2021/06/27 04:58:25;;;;;;;8.65;7.78;;;21.40;68.20;;;;;;5013716;28;20072;-46
2021/06/27 05:00:51;;;;;;;8.20;7.50;;;21.40;68.30;;;;;;5013013;28;20054;-44
2021/06/27 05:03:16;;;;;;;8.57;7.75;;;21.40;68.20;;;;;;5013340;28;20081;-45
2021/06/27 05:05:43;;;;;;;7.85;7.05;;;21.70;68.40;;;;;;5013291;28;20021;-44
2021/06/27 05:08:09;;;;;;;8.82;7.93;;;21.40;68.20;;;;;;5013014;28;20022;-44
2021/06/27 05:10:35;;;;;;;7.78;7.07;;;21.40;68.20;;;;;;5012976;28;20151;-44
2021/06/27 05:13:00;;;;;;;8.95;7.97;;;21.40;68.20;;;;;;5013219;28;20516;-44
2021/06/27 05:15:26;;;;;;;8.32;7.53;;;21.50;68.20;;;;;;5013219;28;20099;-44
2021/06/27 05:17:52;;;;;;;8.05;7.25;;;21.40;68.20;;;;;;5013174;28;20461;-44
2021/06/27 05:20:17;;;;;;;8.00;7.30;;;21.40;68.10;;;;;;5012924;28;20025;-44
2021/06/27 05:22:43;;;;;;;8.18;7.38;;;21.80;68.30;;;;;;5012836;28;20477;-44
2021/06/27 05:25:10;;;;;;;7.60;6.90;;;21.60;68.30;;;;;;5012824;28;20033;-44
2021/06/27 05:27:35;;;;;;;8.85;8.02;;;21.30;68.10;;;;;;5012720;28;20080;-44
2021/06/27 05:30:02;;;;;;;8.00;7.30;;;21.30;68.00;;;;;;5013006;28;20034;-44
2021/06/27 05:32:28;;;;;;;7.72;7.03;;;21.40;68.00;;;;;;5012625;28;20109;-44
2021/06/27 05:34:53;;;;;;;8.50;7.60;;;21.40;68.00;;;;;;5012935;28;20058;-46
2021/06/27 05:37:19;;;;;;;8.00;7.28;;;21.70;68.20;;;;;;5012691;28;20041;-44
2021/06/27 05:39:45;;;;;;;8.45;7.55;;;21.10;67.90;;;;;;5012716;28;20026;-44
2021/06/27 05:42:10;;;;;;;9.70;8.75;;;21.50;68.10;;;;;;5012415;28;20396;-44
2021/06/27 05:44:36;;;;;;;9.50;8.52;;;21.40;67.90;;;;;;5012740;28;20097;-44
2021/06/27 05:47:02;;;;;;;8.05;7.35;;;21.40;68.00;;;;;;5012457;28;20045;-44
2021/06/27 05:49:27;;;;;;;8.32;7.53;;;21.40;67.90;;;;;;5011350;28;20484;-44
2021/06/27 05:51:53;;;;;;;7.15;6.55;;;21.40;67.90;;;;;;5012584;28;20430;-44
2021/06/27 05:54:18;;;;;;;9.15;8.27;;;21.40;67.90;;;;;;5012800;28;20022;-44
2021/06/27 05:56:44;;;;;;;8.30;7.50;;;21.30;67.90;;;;;;5012779;28;20021;-44
2021/06/27 05:59:10;;;;;;;7.63;6.93;;;21.40;67.80;;;;;;5012461;28;20018;-44
2021/06/27 06:01:35;;;;;;;7.53;6.90;;;21.70;68.00;;;;;;5012344;28;20030;-44
2021/06/27 06:04:01;;;;;;;8.32;6.90;;;21.40;67.80;;;;;;5012405;28;20037;-44
2021/06/27 06:06:27;;;;;;;7.85;7.15;;;21.40;67.80;;;;;;5012366;28;20026;-43
2021/06/27 06:08:53;;;;;;;7.13;6.53;;;21.40;67.80;;;;;;5012688;28;20018;-44
2021/06/27 06:11:18;;;;;;;7.05;6.45;;;21.40;67.70;;;;;;5012688;28;20495;-44
2021/06/27 06:13:44;;;;;;;7.30;6.60;;;21.20;67.60;;;;;;5012891;28;20101;-44
2021/06/27 06:16:11;;;;;;;7.30;6.63;;;21.50;67.80;;;;;;5012578;28;20037;-45
2021/06/27 06:18:40;;;;;;;7.93;7.22;;;21.30;67.60;;;;;;5012583;28;20089;-43
2021/06/27 06:21:06;;;;;;;7.25;6.53;;;21.30;67.60;;;;;;5012271;28;20030;-44
2021/06/27 06:23:32;;;;;;;6.93;6.32;;;21.40;67.70;;;;;;5012206;28;20029;-46
2021/06/27 06:25:57;;;;;;;7.22;6.60;;;21.70;67.80;;;;;;5012555;28;20049;-44
2021/06/27 06:28:23;;;;;;;7.13;6.43;;;21.60;67.80;;;;;;5012566;28;20421;-45
2021/06/27 06:30:49;;;;;;;9.70;7.05;;;21.10;67.50;;;;;;5012487;28;20061;-46
2021/06/27 06:33:14;;;;;;;6.90;6.30;;;21.30;67.60;;;;;;5015723;28;20518;-45
2021/06/27 06:35:42;;;;;;;7.82;7.13;;;21.20;67.50;;;;;;5015955;28;20030;-46
2021/06/27 06:38:09;;;;;;;7.50;6.80;;;21.40;67.70;;;;;;5015650;28;20018;-43
2021/06/27 06:40:36;;;;;;;7.90;7.07;;;21.40;67.80;;;;;;5015822;28;20057;-44
2021/06/27 06:43:03;;;;;;;7.53;6.82;;;21.40;67.20;;;;;;5015563;28;20041;-44
2021/06/27 06:45:29;;;;;;;8.50;7.63;;;21.40;67.80;;;;;;5015625;28;20064;-44
2021/06/27 06:47:55;;;;;;;7.85;7.05;;;21.40;67.90;;;;;;5015764;28;20393;-44
2021/06/27 06:50:21;;;;;;;7.65;6.95;;;21.40;67.90;;;;;;5015712;28;20026;-44
2021/06/27 06:52:47;;;;;;;7.55;6.82;;;21.40;67.90;;;;;;5015444;28;20026;-43
2021/06/27 06:55:13;;;;;;;7.80;7.10;;;21.40;67.80;;;;;;5015617;28;20072;-44
2021/06/27 06:57:38;;;;;;;7.95;7.25;;;21.20;67.80;;;;;;5015246;28;20032;-43
2021/06/27 07:00:06;;;;;;;7.68;6.97;;;21.40;68.10;;;;;;5015714;28;20460;-43
2021/06/27 07:02:32;;;;;;;7.38;6.72;;;21.40;68.00;;;;;;5014116;28;20124;-44
2021/06/27 07:04:57;;;;;;;7.18;6.57;;;21.70;68.40;;;;;;5015182;28;20445;-44
2021/06/27 07:07:23;;;;;;;7.30;6.68;;;21.40;67.90;;;;;;5014975;28;20369;-44
2021/06/27 07:09:48;;;;;;;6.85;6.28;;;21.40;68.00;;;;;;5015324;28;20037;-44
2021/06/27 07:12:14;;;;;;;7.82;7.13;;;21.50;68.10;;;;;;5015204;28;20056;-45
2021/06/27 07:14:40;;;;;;;9.50;8.60;;;21.40;68.30;;;;;;5015157;28;20018;-44
2021/06/27 07:17:05;;;;;;;9.13;8.23;;;21.70;68.40;;;;;;5014943;28;20030;-44
2021/06/27 07:19:31;;;;;;;7.93;7.22;;;21.50;68.50;;;;;;5015086;28;20469;-44
2021/06/27 07:21:57;;;;;;;7.75;6.95;;;21.50;68.30;;;;;;5014974;28;20148;-44
2021/06/27 07:24:22;;;;;;;8.02;6.97;;;21.40;68.20;;;;;;5014994;28;20354;-44
2021/06/27 07:26:48;;;;;;;8.13;7.38;;;21.70;68.60;;;;;;5014985;28;20558;-44
2021/06/27 07:29:14;;;;;;;6.97;6.35;;;21.60;68.60;;;;;;5015016;28;20049;-44
2021/06/27 07:31:40;;;;;;;8.18;7.47;;;21.60;68.50;;;;;;5014653;28;20104;-44
2021/06/27 07:34:05;;;;;;;7.93;7.18;;;21.50;68.40;;;;;;5014698;28;20033;-44
2021/06/27 07:36:31;;;;;;;7.50;6.82;;;21.50;68.40;;;;;;5014533;28;20087;-44
2021/06/27 07:38:56;;;;;;;7.15;6.25;;;21.50;68.20;;;;;;5014764;28;20017;-46
2021/06/27 07:41:22;;;;;;;7.15;6.55;;;21.70;68.60;;;;;;5014593;28;20512;-44
2021/06/27 07:43:50;;;;;;;8.50;7.78;;;21.80;68.50;;;;;;5013213;28;20022;-44
2021/06/27 07:46:16;;;;;;;7.60;6.75;;;21.50;68.40;;;;;;5013225;28;20137;-44
2021/06/27 07:48:42;;;;;;;7.18;6.47;;;21.60;68.40;;;;;;5014581;28;20093;-44
2021/06/27 07:51:07;;;;;;;7.10;6.50;;;21.50;68.30;;;;;;5014303;28;20564;-43
2021/06/27 07:53:33;;;;;;;7.30;6.60;;;21.50;68.50;;;;;;5014530;28;20067;-44
2021/06/27 07:55:58;;;;;;;7.72;6.88;;;21.70;68.50;;;;;;5014196;28;20021;-44
2021/06/27 07:58:24;;;;;;;7.78;7.03;;;21.60;68.70;;;;;;5014463;28;20045;-44
2021/06/27 08:00:50;;;;;;;8.23;7.43;;;21.60;68.60;;;;;;5014278;28;20022;-45
2021/06/27 08:03:15;;;;;;;11.32;6.25;;;21.70;68.80;;;;;;5014242;28;20026;-43
2021/06/27 08:05:41;;;;;;;7.90;7.13;;;21.60;68.50;;;;;;5013964;28;20535;-44
2021/06/27 08:08:06;;;;;;;7.18;6.18;;;21.40;68.40;;;;;;5014129;28;20381;-44
2021/06/27 08:10:32;;;;;;;7.60;6.88;;;21.70;68.60;;;;;;5014067;28;20060;-45
2021/06/27 08:12:59;;;;;;;7.10;6.45;;;21.60;68.50;;;;;;5014123;28;20373;-44
2021/06/27 08:15:26;;;;;;;7.70;6.88;;;22.00;68.80;;;;;;5013819;28;20465;-44
2021/06/27 08:17:52;;;;;;;7.22;6.50;;;21.60;68.60;;;;;;5014087;28;20033;-44
2021/06/27 08:20:19;;;;;;;10.93;7.05;;;21.80;68.60;;;;;;5013891;28;20033;-44
2021/06/27 08:22:45;;;;;;;7.82;6.53;;;21.70;68.60;;;;;;5014011;28;20061;-44
2021/06/27 08:25:12;;;;;;;7.05;6.38;;;21.90;68.80;;;;;;5014019;28;20053;-44
2021/06/27 08:27:38;;;;;;;7.57;6.85;;;21.70;68.60;;;;;;5013916;28;20026;-44
2021/06/27 08:30:08;;;;;;;7.57;6.25;;;21.70;68.60;;;;;;5013959;28;20025;-44
2021/06/27 08:32:34;;;;;;;7.47;6.68;;;21.70;68.50;;;;;;5013621;28;20022;-44
2021/06/27 08:35:00;;;;;;;7.35;6.65;;;21.70;68.50;;;;;;5013784;28;20018;-43
2021/06/27 08:37:26;;;;;;;7.82;6.05;;;21.70;68.50;;;;;;5013482;28;20497;-43
2021/06/27 08:39:52;;;;;;;9.80;6.78;;;21.70;68.50;;;;;;5013458;28;20033;-43
2021/06/27 08:42:21;;;;;;;7.15;6.45;;;21.80;68.50;;;;;;5013277;28;20141;-44
2021/06/27 08:44:48;;;;;;;7.37;6.67;;;21.70;68.40;;;;;;5013740;28;20389;-44
2021/06/27 08:47:18;;;;;;;6.90;6.25;;;21.50;68.20;;;;;;5013226;28;20663;-43
2021/06/27 08:49:51;;;;;;;6.15;5.55;;;21.80;68.40;;;;;;5013581;28;20028;-44
2021/06/27 08:52:21;;;;;;;6.78;6.18;;;22.20;68.40;;;;;;5013608;28;20048;-44
2021/06/27 08:54:49;;;;;;;6.80;5.47;;;21.80;68.20;;;;;;5013260;28;20021;-45
2021/06/27 08:57:16;;;;;;;7.95;6.20;;;21.80;68.10;;;;;;5013540;28;20469;-44
2021/06/27 08:59:42;;;;;;;7.82;6.30;;;22.10;68.30;;;;;;5013253;28;20022;-45
2021/06/27 09:02:09;;;;;;;7.38;6.55;;;21.80;68.10;;;;;;5013314;28;20025;-44
2021/06/27 09:04:40;;;;;;;7.55;5.97;;;21.90;68.10;;;;;;5013199;28;20025;-44
2021/06/27 09:07:26;;;;;;;7.45;6.28;;;22.20;68.10;;;;;;5013531;28;20030;-43
2021/06/27 09:09:51;;;;;;;6.75;6.15;;;21.90;67.90;;;;;;5011876;28;20034;-44
2021/06/27 09:12:17;;;;;;;7.47;5.90;;;22.00;67.80;;;;;;5013087;28;20072;-44
2021/06/27 09:14:45;;;;;;;6.07;5.50;;;22.00;67.80;;;;;;5012909;28;20022;-44
2021/06/27 09:17:24;;;;;;;6.78;5.32;;;22.30;67.80;;;;;;5013035;28;20039;-45
2021/06/27 09:19:56;;;;;;;7.10;6.40;;;22.10;67.60;;;;;;5012927;28;20101;-45
2021/06/27 09:22:23;;;;;;;6.40;5.80;;;22.10;67.50;;;;;;5012914;28;20046;-44
2021/06/27 09:24:49;;;;;;;6.32;5.72;;;22.10;67.40;;;;;;5012923;28;20073;-45
2021/06/27 09:27:24;;;;;;;6.15;5.53;;;22.60;67.70;;;;;;5013078;28;20022;-46
2021/06/27 09:29:51;;;;;;;6.05;5.45;;;22.20;67.50;;;;;;5013106;28;20264;-45
2021/06/27 09:32:19;;;;;;;7.32;6.57;;;22.20;67.40;;;;;;5013195;28;20018;-45
2021/06/27 09:34:45;;;;;;;7.40;6.00;;;22.10;67.30;;;;;;5013199;28;20018;-51
2021/06/27 09:37:13;;;;;;;6.60;5.97;;;22.20;67.30;;;;;;5013090;28;20049;-44
2021/06/27 09:40:02;;;;;;;10.63;6.45;;;22.20;67.20;;;;;;5013092;28;20026;-45
2021/06/27 09:42:30;;;;;;;6.32;5.57;;;22.40;67.30;;;;;;5012486;28;20036;-44
2021/06/27 09:45:13;;;;;;;6.07;5.57;;;22.20;67.10;;;;;;5012846;28;20097;-45
2021/06/27 09:48:02;;;;;;;7.57;5.78;;;22.30;67.10;;;;;;5012634;28;20054;-46
2021/06/27 09:50:29;;;;;;;6.47;5.88;;;22.30;67.00;;;;;;5012797;28;20025;-51
2021/06/27 09:52:55;;;;;;;6.45;5.75;;;22.40;67.10;;;;;;5012853;28;20531;-45
2021/06/27 09:55:20;;;;;;;6.63;5.78;;;22.30;67.10;;;;;;5012887;28;20045;-46
2021/06/27 09:57:47;;;;;;;6.18;5.57;;;22.30;67.00;;;;;;5012826;28;20465;-48
2021/06/27 10:00:22;;;;;;;7.70;5.97;;;22.30;67.00;;;;;;5012637;28;20021;-44
2021/06/27 10:03:04;;;;;;;6.50;5.90;;;22.40;67.00;;;;;;5012497;28;20076;-45
2021/06/27 10:05:31;;;;;;;7.70;5.72;;;22.40;66.90;;;;;;5011034;28;20037;-46
2021/06/27 10:07:56;;;;;;;8.15;5.90;;;22.50;66.90;;;;;;5014578;28;20036;-46
2021/06/27 10:10:22;;;;;;;6.90;5.40;;;22.70;67.10;;;;;;5015795;28;20026;-46
2021/06/27 10:12:49;;;;;;;6.18;5.57;;;22.50;66.90;;;;;;5015322;28;20073;-44
2021/06/27 10:15:15;;;;;;;6.90;5.80;;;22.60;66.90;;;;;;5016015;28;20089;-44
2021/06/27 10:17:43;;;;;;;6.55;5.95;;;22.60;66.80;;;;;;5016097;28;20149;-44
2021/06/27 10:20:11;;;;;;;6.70;6.05;;;22.70;66.90;;;;;;5016244;28;20064;-44
2021/06/27 10:22:38;;;;;;;5.60;5.10;;;22.70;66.80;;;;;;5016188;28;20156;-46
2021/06/27 10:25:06;;;;;;;6.43;5.80;;;22.80;66.70;;;;;;5016238;28;20385;-45
2021/06/27 10:27:33;;;;;;;6.07;5.38;;;22.80;66.60;;;;;;5014887;28;20030;-45
2021/06/27 10:30:01;;;;;;;5.47;4.97;;;23.00;66.60;;;;;;5015753;28;20514;-45
2021/06/27 10:32:27;;;;;;;5.93;5.20;;;22.90;66.40;;;;;;5015769;28;20109;-45
2021/06/27 10:34:55;;;;;;;6.00;5.40;;;23.10;66.50;;;;;;5014333;28;20113;-45
2021/06/27 10:37:32;;;;;;;6.38;5.78;;;23.00;66.30;;;;;;5014359;28;20022;-46
2021/06/27 10:40:06;;;;;;;6.28;5.70;;;23.10;86.00;;;;;;5014063;28;20022;-46
2021/06/27 10:42:50;;;;;;;6.10;5.50;;;23.10;66.30;;;;;;5014699;28;20045;-45
2021/06/27 10:45:47;;;;;;;5.30;4.80;;;23.10;66.30;;;;;;5015758;28;20080;-45
2021/06/27 10:48:31;;;;;;;5.95;4.97;;;23.10;66.20;;;;;;5007129;28;20046;-45
2021/06/27 10:50:58;;;;;;;6.45;4.90;;;23.10;66.30;;;;;;5015408;28;20041;-45
2021/06/27 10:53:25;;;;;;;5.85;5.35;;;23.10;66.30;;;;;;5015326;28;20029;-45
2021/06/27 10:55:58;;;;;;;6.93;6.03;;;23.20;66.40;;;;;;5015567;28;20030;-45
2021/06/27 10:58:36;;;;;;;6.40;5.60;;;23.20;66.50;;;;;;5015266;28;20037;-45
2021/06/27 11:01:12;;;;;;;6.65;6.05;;;23.10;66.30;;;;;;5015215;28;20022;-45
2021/06/27 11:03:45;;;;;;;6.63;5.70;;;23.20;66.20;;;;;;5015424;28;20067;-44
2021/06/27 11:06:17;;;;;;;6.25;5.65;;;23.20;66.20;;;;;;5015031;28;20476;-45
2021/06/27 11:08:44;;;;;;;5.97;5.43;;;23.30;66.20;;;;;;5015002;28;20496;-46
2021/06/27 11:11:15;;;;;;;5.07;4.68;;;23.30;66.20;;;;;;5015275;28;20022;-45
2021/06/27 11:13:42;;;;;;;6.30;5.55;;;23.30;66.20;;;;;;5015224;28;20022;-46
2021/06/27 11:16:13;;;;;;;5.88;5.28;;;23.40;66.30;;;;;;5015193;28;20014;-46
2021/06/27 11:18:43;;;;;;;6.07;5.47;;;23.30;66.20;;;;;;5014517;28;20041;-45
2021/06/27 11:21:14;;;;;;;6.53;5.40;;;23.40;66.10;;;;;;5014942;28;20042;-46
2021/06/27 11:24:00;;;;;;;5.45;4.95;;;23.30;66.00;;;;;;5014872;28;20017;-45
2021/06/27 11:26:41;;;;;;;6.75;5.32;;;23.40;66.10;;;;;;5014897;28;20438;-45
2021/06/27 11:29:21;;;;;;;5.40;4.90;;;23.40;65.90;;;;;;5014848;28;20022;-45
2021/06/27 11:31:52;;;;;;;7.70;4.90;;;23.50;65.90;;;;;;5014659;28;20041;-45
2021/06/27 11:34:31;;;;;;;5.90;5.18;;;23.40;66.40;;;;;;5014273;28;20033;-45
2021/06/27 11:37:19;;;;;;;4.78;4.43;;;23.40;65.60;;;;;;5014691;28;20052;-45
2021/06/27 11:39:55;;;;;;;5.40;4.90;;;23.50;65.70;;;;;;5014278;28;20030;-46
2021/06/27 11:42:24;;;;;;;5.28;4.85;;;23.40;65.60;;;;;;5014170;28;20045;-45
2021/06/27 11:45:07;;;;;;;5.35;4.95;;;23.50;65.70;;;;;;5014538;28;20420;-46
2021/06/27 11:47:51;;;;;;;5.70;5.20;;;23.40;65.60;;;;;;5014079;28;20053;-45
2021/06/27 11:50:23;;;;;;;5.50;5.00;;;23.50;65.70;;;;;;5014462;28;20022;-46
2021/06/27 11:52:51;;;;;;;5.65;4.78;;;23.40;65.60;;;;;;5014472;28;20160;-44
2021/06/27 11:55:16;;;;;;;5.45;4.95;;;23.50;65.50;;;;;;5014490;28;20018;-44
2021/06/27 11:57:43;;;;;;;6.05;4.93;;;23.50;65.60;;;;;;5012946;28;20085;-45
2021/06/27 12:00:12;;;;;;;6.22;5.30;;;23.50;65.60;;;;;;5014216;28;20017;-45
2021/06/27 12:02:38;;;;;;;4.85;4.47;;;23.50;65.50;;;;;;5014057;28;20117;-45
2021/06/27 12:05:15;;;;;;;5.68;5.07;;;23.50;65.50;;;;;;5014304;28;20053;-45
2021/06/27 12:07:45;;;;;;;5.10;4.70;;;23.70;65.50;;;;;;5014447;28;20084;-44
2021/06/27 12:10:21;;;;;;;4.97;4.35;;;23.60;65.50;;;;;;5013866;28;20022;-45
2021/06/27 12:12:56;;;;;;;4.95;4.45;;;23.60;65.40;;;;;;5014265;28;20026;-44
2021/06/27 12:15:22;;;;;;;7.20;5.00;;;23.90;65.60;;;;;;5014132;28;20026;-45
2021/06/27 12:17:56;;;;;;;5.22;4.80;;;23.60;65.40;;;;;;5014134;28;20104;-45
2021/06/27 12:20:22;;;;;;;5.47;4.65;;;23.80;65.40;;;;;;5014022;28;20032;-44
2021/06/27 12:23:11;;;;;;;5.55;4.95;;;23.60;65.30;;;;;;5013917;28;20030;-44
2021/06/27 12:25:47;;;;;;;5.13;4.63;;;23.70;65.30;;;;;;5012496;28;20056;-45
2021/06/27 12:28:16;;;;;;;5.78;5.28;;;23.70;65.20;;;;;;5014226;28;20381;-44
2021/06/27 12:30:59;;;;;;;6.70;4.82;;;23.70;65.20;;;;;;5013537;28;20311;-45
2021/06/27 12:33:33;;;;;;;6.85;4.97;;;23.80;65.30;;;;;;5013978;28;20105;-45
2021/06/27 12:36:05;;;;;;;5.15;4.75;;;23.80;65.10;;;;;;5013743;28;20412;-46
2021/06/27 12:38:32;;;;;;;6.25;5.47;;;23.80;65.20;;;;;;5013809;28;20022;-45
2021/06/27 12:41:00;;;;;;;5.47;4.63;;;23.80;65.30;;;;;;5013566;28;20117;-45
2021/06/27 12:43:33;;;;;;;7.18;4.55;;;23.80;65.50;;;;;;5013675;28;20374;-45
2021/06/27 12:46:16;;;;;;;8.65;5.13;;;23.80;65.70;;;;;;5013305;28;20406;-44
2021/06/27 12:48:59;;;;;;;7.07;5.00;;;23.80;65.70;;;;;;5013689;28;20057;-44
2021/06/27 12:51:31;;;;;;;8.13;4.63;;;23.90;65.60;;;;;;5013439;28;20428;-44